sensor_id;sensor_type;location;lat;lon;timestamp;P1;durP1;ratioP1;P2;durP2;ratioP2
9445;SDS011;4761;49.490;10.908;2024-02-21T00:00:54;4.60;;;2.33;;
9445;SDS011;4761;49.490;10.908;2024-02-21T00:03:20;5.40;;;2.63;;
9445;SDS011;4761;49.490;10.908;2024-02-21T00:05:45;6.10;;;2.43;;
9445;SDS011;4761;49.490;10.908;2024-02-21T00:08:11;5.37;;;2.60;;
9445;SDS011;4761;49.490;10.908;2024-02-21T00:10:36;5.87;;;2.83;;
9445;SDS011;4761;49.490;10.908;2024-02-21T00:13:02;7.07;;;2.63;;
9445;SDS011;4761;49.490;10.908;2024-02-21T00:15:28;5.13;;;2.50;;
9445;SDS011;4761;49.490;10.908;2024-02-21T00:17:53;5.27;;;2.30;;
9445;SDS011;4761;49.490;10.908;2024-02-21T00:20:19;6.00;;;2.43;;
9445;SDS011;4761;49.490;10.908;2024-02-21T00:22:45;5.40;;;2.90;;
9445;SDS011;4761;49.490;10.908;2024-02-21T00:25:11;5.73;;;2.57;;
9445;SDS011;4761;49.490;10.908;2024-02-21T00:27:36;5.23;;;2.53;;
9445;SDS011;4761;49.490;10.908;2024-02-21T00:30:02;5.80;;;2.60;;
9445;SDS011;4761;49.490;10.908;2024-02-21T00:32:28;6.97;;;2.63;;
9445;SDS011;4761;49.490;10.908;2024-02-21T00:34:54;5.13;;;2.40;;
9445;SDS011;4761;49.490;10.908;2024-02-21T00:37:19;4.87;;;2.30;;
9445;SDS011;4761;49.490;10.908;2024-02-21T00:39:45;6.40;;;2.90;;
9445;SDS011;4761;49.490;10.908;2024-02-21T00:42:10;6.13;;;2.90;;
9445;SDS011;4761;49.490;10.908;2024-02-21T00:44:36;5.83;;;2.80;;
9445;SDS011;4761;49.490;10.908;2024-02-21T00:47:01;6.60;;;2.90;;
9445;SDS011;4761;49.490;10.908;2024-02-21T00:49:27;5.80;;;2.77;;
9445;SDS011;4761;49.490;10.908;2024-02-21T00:51:53;7.10;;;2.80;;
9445;SDS011;4761;49.490;10.908;2024-02-21T00:54:18;5.57;;;2.53;;
9445;SDS011;4761;49.490;10.908;2024-02-21T00:56:44;5.47;;;2.70;;
9445;SDS011;4761;49.490;10.908;2024-02-21T00:59:09;7.87;;;2.93;;
9445;SDS011;4761;49.490;10.908;2024-02-21T01:01:35;6.03;;;2.67;;
9445;SDS011;4761;49.490;10.908;2024-02-21T01:04:00;5.67;;;2.70;;
9445;SDS011;4761;49.490;10.908;2024-02-21T01:06:26;6.30;;;2.50;;
9445;SDS011;4761;49.490;10.908;2024-02-21T01:08:51;5.47;;;2.83;;
9445;SDS011;4761;49.490;10.908;2024-02-21T01:11:17;5.77;;;2.63;;
9445;SDS011;4761;49.490;10.908;2024-02-21T01:13:42;5.50;;;2.40;;
9445;SDS011;4761;49.490;10.908;2024-02-21T01:16:08;6.53;;;2.80;;
9445;SDS011;4761;49.490;10.908;2024-02-21T01:18:34;3.90;;;2.43;;
9445;SDS011;4761;49.490;10.908;2024-02-21T01:21:01;6.57;;;2.97;;
9445;SDS011;4761;49.490;10.908;2024-02-21T01:23:27;6.27;;;2.90;;
9445;SDS011;4761;49.490;10.908;2024-02-21T01:25:53;8.60;;;3.30;;
9445;SDS011;4761;49.490;10.908;2024-02-21T01:28:20;4.43;;;2.40;;
9445;SDS011;4761;49.490;10.908;2024-02-21T01:30:45;7.43;;;2.83;;
9445;SDS011;4761;49.490;10.908;2024-02-21T01:33:11;6.63;;;3.00;;
9445;SDS011;4761;49.490;10.908;2024-02-21T01:35:36;6.23;;;2.60;;
9445;SDS011;4761;49.490;10.908;2024-02-21T01:38:02;5.47;;;3.00;;
9445;SDS011;4761;49.490;10.908;2024-02-21T01:40:28;5.77;;;2.80;;
9445;SDS011;4761;49.490;10.908;2024-02-21T01:42:55;5.07;;;2.50;;
9445;SDS011;4761;49.490;10.908;2024-02-21T01:45:21;7.90;;;3.10;;
9445;SDS011;4761;49.490;10.908;2024-02-21T01:47:46;7.27;;;2.73;;
9445;SDS011;4761;49.490;10.908;2024-02-21T01:50:13;6.63;;;2.57;;
9445;SDS011;4761;49.490;10.908;2024-02-21T01:52:40;5.67;;;2.90;;
9445;SDS011;4761;49.490;10.908;2024-02-21T01:55:06;5.93;;;2.60;;
9445;SDS011;4761;49.490;10.908;2024-02-21T01:57:34;6.30;;;3.00;;
9445;SDS011;4761;49.490;10.908;2024-02-21T02:00:00;6.70;;;2.57;;
9445;SDS011;4761;49.490;10.908;2024-02-21T02:02:26;5.20;;;2.33;;
9445;SDS011;4761;49.490;10.908;2024-02-21T02:04:52;4.07;;;2.10;;
9445;SDS011;4761;49.490;10.908;2024-02-21T02:07:18;5.23;;;2.90;;
9445;SDS011;4761;49.490;10.908;2024-02-21T02:09:43;6.20;;;2.70;;
9445;SDS011;4761;49.490;10.908;2024-02-21T02:12:09;6.40;;;2.93;;
9445;SDS011;4761;49.490;10.908;2024-02-21T02:14:34;5.50;;;2.47;;
9445;SDS011;4761;49.490;10.908;2024-02-21T02:17:00;5.00;;;2.50;;
9445;SDS011;4761;49.490;10.908;2024-02-21T02:19:25;7.47;;;2.73;;
9445;SDS011;4761;49.490;10.908;2024-02-21T02:21:58;7.43;;;2.90;;
9445;SDS011;4761;49.490;10.908;2024-02-21T02:24:31;4.40;;;2.43;;
9445;SDS011;4761;49.490;10.908;2024-02-21T02:26:57;6.27;;;2.67;;
9445;SDS011;4761;49.490;10.908;2024-02-21T02:29:22;6.67;;;2.77;;
9445;SDS011;4761;49.490;10.908;2024-02-21T02:31:48;6.47;;;2.77;;
9445;SDS011;4761;49.490;10.908;2024-02-21T02:34:14;6.57;;;2.80;;
9445;SDS011;4761;49.490;10.908;2024-02-21T02:36:40;5.90;;;2.63;;
9445;SDS011;4761;49.490;10.908;2024-02-21T02:39:05;6.43;;;2.67;;
9445;SDS011;4761;49.490;10.908;2024-02-21T02:41:31;8.50;;;3.43;;
9445;SDS011;4761;49.490;10.908;2024-02-21T02:44:00;6.17;;;2.40;;
9445;SDS011;4761;49.490;10.908;2024-02-21T02:46:26;4.83;;;2.37;;
9445;SDS011;4761;49.490;10.908;2024-02-21T02:48:51;6.97;;;2.47;;
9445;SDS011;4761;49.490;10.908;2024-02-21T02:51:17;7.17;;;2.90;;
9445;SDS011;4761;49.490;10.908;2024-02-21T02:53:43;6.47;;;2.70;;
9445;SDS011;4761;49.490;10.908;2024-02-21T02:56:13;4.90;;;2.40;;
9445;SDS011;4761;49.490;10.908;2024-02-21T02:58:44;5.57;;;2.97;;
9445;SDS011;4761;49.490;10.908;2024-02-21T03:01:11;4.27;;;2.43;;
9445;SDS011;4761;49.490;10.908;2024-02-21T03:03:36;6.10;;;2.87;;
9445;SDS011;4761;49.490;10.908;2024-02-21T03:06:02;3.57;;;2.23;;
9445;SDS011;4761;49.490;10.908;2024-02-21T03:08:27;5.00;;;2.50;;
9445;SDS011;4761;49.490;10.908;2024-02-21T03:10:53;3.90;;;2.10;;
9445;SDS011;4761;49.490;10.908;2024-02-21T03:13:18;6.67;;;2.60;;
9445;SDS011;4761;49.490;10.908;2024-02-21T03:15:44;5.43;;;2.57;;
9445;SDS011;4761;49.490;10.908;2024-02-21T03:18:09;4.77;;;2.50;;
9445;SDS011;4761;49.490;10.908;2024-02-21T03:20:35;6.17;;;2.43;;
9445;SDS011;4761;49.490;10.908;2024-02-21T03:23:00;6.73;;;2.87;;
9445;SDS011;4761;49.490;10.908;2024-02-21T03:25:26;5.57;;;2.43;;
9445;SDS011;4761;49.490;10.908;2024-02-21T03:27:51;6.77;;;2.60;;
9445;SDS011;4761;49.490;10.908;2024-02-21T03:30:17;4.90;;;2.27;;
9445;SDS011;4761;49.490;10.908;2024-02-21T03:32:43;4.70;;;2.43;;
9445;SDS011;4761;49.490;10.908;2024-02-21T03:35:08;5.37;;;2.40;;
9445;SDS011;4761;49.490;10.908;2024-02-21T03:37:34;6.10;;;2.57;;
9445;SDS011;4761;49.490;10.908;2024-02-21T03:39:59;7.17;;;2.90;;
9445;SDS011;4761;49.490;10.908;2024-02-21T03:42:25;6.22;;;2.50;;
9445;SDS011;4761;49.490;10.908;2024-02-21T03:44:50;6.43;;;2.63;;
9445;SDS011;4761;49.490;10.908;2024-02-21T03:47:16;6.07;;;2.60;;
9445;SDS011;4761;49.490;10.908;2024-02-21T03:49:41;5.80;;;2.63;;
9445;SDS011;4761;49.490;10.908;2024-02-21T03:52:07;5.50;;;2.60;;
9445;SDS011;4761;49.490;10.908;2024-02-21T03:54:33;4.10;;;2.20;;
9445;SDS011;4761;49.490;10.908;2024-02-21T03:56:59;4.97;;;2.40;;
9445;SDS011;4761;49.490;10.908;2024-02-21T03:59:24;6.37;;;2.63;;
9445;SDS011;4761;49.490;10.908;2024-02-21T04:01:53;4.63;;;2.30;;
9445;SDS011;4761;49.490;10.908;2024-02-21T04:04:19;4.90;;;2.90;;
9445;SDS011;4761;49.490;10.908;2024-02-21T04:06:48;3.97;;;1.77;;
9445;SDS011;4761;49.490;10.908;2024-02-21T04:09:14;4.20;;;2.13;;
9445;SDS011;4761;49.490;10.908;2024-02-21T04:11:40;6.37;;;2.63;;
9445;SDS011;4761;49.490;10.908;2024-02-21T04:14:05;5.07;;;2.27;;
9445;SDS011;4761;49.490;10.908;2024-02-21T04:16:32;5.23;;;2.40;;
9445;SDS011;4761;49.490;10.908;2024-02-21T04:18:57;5.45;;;2.35;;
9445;SDS011;4761;49.490;10.908;2024-02-21T04:21:23;5.33;;;2.50;;
9445;SDS011;4761;49.490;10.908;2024-02-21T04:23:48;6.40;;;2.60;;
9445;SDS011;4761;49.490;10.908;2024-02-21T04:26:14;5.10;;;2.33;;
9445;SDS011;4761;49.490;10.908;2024-02-21T04:28:39;5.37;;;2.50;;
9445;SDS011;4761;49.490;10.908;2024-02-21T04:31:05;5.93;;;2.27;;
9445;SDS011;4761;49.490;10.908;2024-02-21T04:33:30;5.90;;;2.27;;
9445;SDS011;4761;49.490;10.908;2024-02-21T04:35:56;3.73;;;2.23;;
9445;SDS011;4761;49.490;10.908;2024-02-21T04:38:23;6.03;;;2.73;;
9445;SDS011;4761;49.490;10.908;2024-02-21T04:40:49;4.67;;;1.90;;
9445;SDS011;4761;49.490;10.908;2024-02-21T04:43:14;6.17;;;2.10;;
9445;SDS011;4761;49.490;10.908;2024-02-21T04:45:40;5.70;;;2.43;;
9445;SDS011;4761;49.490;10.908;2024-02-21T04:48:05;6.13;;;2.30;;
9445;SDS011;4761;49.490;10.908;2024-02-21T04:50:31;7.63;;;2.70;;
9445;SDS011;4761;49.490;10.908;2024-02-21T04:52:56;5.57;;;2.20;;
9445;SDS011;4761;49.490;10.908;2024-02-21T04:55:22;3.93;;;2.23;;
9445;SDS011;4761;49.490;10.908;2024-02-21T04:57:47;4.27;;;2.13;;
9445;SDS011;4761;49.490;10.908;2024-02-21T05:00:13;5.10;;;2.27;;
9445;SDS011;4761;49.490;10.908;2024-02-21T05:02:39;4.40;;;2.30;;
9445;SDS011;4761;49.490;10.908;2024-02-21T05:05:04;5.67;;;2.20;;
9445;SDS011;4761;49.490;10.908;2024-02-21T05:07:30;3.73;;;2.00;;
9445;SDS011;4761;49.490;10.908;2024-02-21T05:09:56;4.93;;;2.27;;
9445;SDS011;4761;49.490;10.908;2024-02-21T05:12:21;4.43;;;2.23;;
9445;SDS011;4761;49.490;10.908;2024-02-21T05:14:47;6.40;;;2.40;;
9445;SDS011;4761;49.490;10.908;2024-02-21T05:17:12;4.93;;;1.97;;
9445;SDS011;4761;49.490;10.908;2024-02-21T05:19:38;4.57;;;2.20;;
9445;SDS011;4761;49.490;10.908;2024-02-21T05:22:03;5.10;;;2.27;;
9445;SDS011;4761;49.490;10.908;2024-02-21T05:24:29;5.43;;;2.77;;
9445;SDS011;4761;49.490;10.908;2024-02-21T05:26:55;5.03;;;2.20;;
9445;SDS011;4761;49.490;10.908;2024-02-21T05:29:20;6.23;;;2.63;;
9445;SDS011;4761;49.490;10.908;2024-02-21T05:34:21;5.47;;;2.07;;
9445;SDS011;4761;49.490;10.908;2024-02-21T05:36:47;3.73;;;2.23;;
9445;SDS011;4761;49.490;10.908;2024-02-21T05:39:14;4.60;;;1.90;;
9445;SDS011;4761;49.490;10.908;2024-02-21T05:41:41;5.03;;;2.30;;
9445;SDS011;4761;49.490;10.908;2024-02-21T05:44:07;7.13;;;2.23;;
9445;SDS011;4761;49.490;10.908;2024-02-21T05:46:32;5.47;;;2.40;;
9445;SDS011;4761;49.490;10.908;2024-02-21T05:48:58;4.00;;;1.87;;
9445;SDS011;4761;49.490;10.908;2024-02-21T05:51:23;4.47;;;2.00;;
9445;SDS011;4761;49.490;10.908;2024-02-21T05:53:49;4.23;;;2.00;;
9445;SDS011;4761;49.490;10.908;2024-02-21T05:56:14;6.23;;;2.07;;
9445;SDS011;4761;49.490;10.908;2024-02-21T05:58:40;6.43;;;2.43;;
9445;SDS011;4761;49.490;10.908;2024-02-21T06:01:06;6.30;;;2.30;;
9445;SDS011;4761;49.490;10.908;2024-02-21T06:03:32;5.13;;;2.23;;
9445;SDS011;4761;49.490;10.908;2024-02-21T06:05:59;6.17;;;2.90;;
9445;SDS011;4761;49.490;10.908;2024-02-21T06:08:24;6.03;;;2.30;;
9445;SDS011;4761;49.490;10.908;2024-02-21T06:10:50;5.50;;;2.17;;
9445;SDS011;4761;49.490;10.908;2024-02-21T06:13:19;5.95;;;2.50;;
9445;SDS011;4761;49.490;10.908;2024-02-21T06:15:53;4.97;;;2.20;;
9445;SDS011;4761;49.490;10.908;2024-02-21T06:18:19;4.87;;;2.53;;
9445;SDS011;4761;49.490;10.908;2024-02-21T06:20:46;7.17;;;3.47;;
9445;SDS011;4761;49.490;10.908;2024-02-21T06:23:12;7.07;;;3.20;;
9445;SDS011;4761;49.490;10.908;2024-02-21T06:25:40;5.67;;;3.47;;
9445;SDS011;4761;49.490;10.908;2024-02-21T06:28:06;7.63;;;3.77;;
9445;SDS011;4761;49.490;10.908;2024-02-21T06:30:31;7.87;;;4.63;;
9445;SDS011;4761;49.490;10.908;2024-02-21T06:32:57;11.00;;;5.30;;
9445;SDS011;4761;49.490;10.908;2024-02-21T06:35:24;13.70;;;6.70;;
9445;SDS011;4761;49.490;10.908;2024-02-21T06:37:49;13.30;;;5.93;;
9445;SDS011;4761;49.490;10.908;2024-02-21T06:40:20;11.40;;;5.43;;
9445;SDS011;4761;49.490;10.908;2024-02-21T06:42:47;10.53;;;5.47;;
9445;SDS011;4761;49.490;10.908;2024-02-21T06:45:13;10.90;;;4.67;;
9445;SDS011;4761;49.490;10.908;2024-02-21T06:47:39;8.57;;;4.63;;
9445;SDS011;4761;49.490;10.908;2024-02-21T06:50:05;8.90;;;4.30;;
9445;SDS011;4761;49.490;10.908;2024-02-21T06:52:31;7.17;;;3.97;;
9445;SDS011;4761;49.490;10.908;2024-02-21T06:54:56;8.23;;;4.33;;
9445;SDS011;4761;49.490;10.908;2024-02-21T06:57:22;7.83;;;3.73;;
9445;SDS011;4761;49.490;10.908;2024-02-21T06:59:48;8.83;;;4.03;;
9445;SDS011;4761;49.490;10.908;2024-02-21T07:02:14;11.17;;;4.40;;
9445;SDS011;4761;49.490;10.908;2024-02-21T07:04:39;8.33;;;3.80;;
9445;SDS011;4761;49.490;10.908;2024-02-21T07:07:05;6.57;;;3.27;;
9445;SDS011;4761;49.490;10.908;2024-02-21T07:09:30;9.43;;;4.17;;
9445;SDS011;4761;49.490;10.908;2024-02-21T07:11:57;8.00;;;3.77;;
9445;SDS011;4761;49.490;10.908;2024-02-21T07:14:23;7.33;;;3.90;;
9445;SDS011;4761;49.490;10.908;2024-02-21T07:16:48;5.90;;;3.23;;
9445;SDS011;4761;49.490;10.908;2024-02-21T07:19:14;7.43;;;3.40;;
9445;SDS011;4761;49.490;10.908;2024-02-21T07:21:39;6.67;;;3.10;;
9445;SDS011;4761;49.490;10.908;2024-02-21T07:24:07;7.60;;;3.57;;
9445;SDS011;4761;49.490;10.908;2024-02-21T07:26:32;6.57;;;3.30;;
9445;SDS011;4761;49.490;10.908;2024-02-21T07:28:58;6.47;;;3.07;;
9445;SDS011;4761;49.490;10.908;2024-02-21T07:31:24;6.43;;;2.93;;
9445;SDS011;4761;49.490;10.908;2024-02-21T07:33:49;5.67;;;3.00;;
9445;SDS011;4761;49.490;10.908;2024-02-21T07:36:15;7.10;;;2.90;;
9445;SDS011;4761;49.490;10.908;2024-02-21T07:38:41;7.23;;;3.03;;
9445;SDS011;4761;49.490;10.908;2024-02-21T07:41:07;5.27;;;2.63;;
9445;SDS011;4761;49.490;10.908;2024-02-21T07:43:32;5.03;;;2.63;;
9445;SDS011;4761;49.490;10.908;2024-02-21T07:45:58;6.83;;;3.47;;
9445;SDS011;4761;49.490;10.908;2024-02-21T07:48:23;6.10;;;3.57;;
9445;SDS011;4761;49.490;10.908;2024-02-21T07:50:52;5.57;;;3.33;;
9445;SDS011;4761;49.490;10.908;2024-02-21T07:53:17;6.00;;;3.53;;
9445;SDS011;4761;49.490;10.908;2024-02-21T07:55:43;7.87;;;3.20;;
9445;SDS011;4761;49.490;10.908;2024-02-21T07:58:08;6.67;;;3.40;;
9445;SDS011;4761;49.490;10.908;2024-02-21T08:00:34;4.37;;;2.80;;
9445;SDS011;4761;49.490;10.908;2024-02-21T08:02:59;6.30;;;3.33;;
9445;SDS011;4761;49.490;10.908;2024-02-21T08:05:25;4.93;;;2.77;;
9445;SDS011;4761;49.490;10.908;2024-02-21T08:07:50;5.55;;;2.88;;
9445;SDS011;4761;49.490;10.908;2024-02-21T08:10:16;5.27;;;2.70;;
9445;SDS011;4761;49.490;10.908;2024-02-21T08:12:41;5.53;;;2.60;;
9445;SDS011;4761;49.490;10.908;2024-02-21T08:15:07;4.73;;;2.60;;
9445;SDS011;4761;49.490;10.908;2024-02-21T08:17:35;3.87;;;2.30;;
9445;SDS011;4761;49.490;10.908;2024-02-21T08:20:01;4.70;;;2.47;;
9445;SDS011;4761;49.490;10.908;2024-02-21T08:22:27;5.23;;;2.57;;
9445;SDS011;4761;49.490;10.908;2024-02-21T08:24:53;5.47;;;2.40;;
9445;SDS011;4761;49.490;10.908;2024-02-21T08:27:18;5.87;;;2.73;;
9445;SDS011;4761;49.490;10.908;2024-02-21T08:29:44;6.27;;;2.50;;
9445;SDS011;4761;49.490;10.908;2024-02-21T08:32:10;5.83;;;2.50;;
9445;SDS011;4761;49.490;10.908;2024-02-21T08:34:35;4.30;;;2.30;;
9445;SDS011;4761;49.490;10.908;2024-02-21T08:37:01;4.78;;;2.30;;
9445;SDS011;4761;49.490;10.908;2024-02-21T08:39:26;4.67;;;2.40;;
9445;SDS011;4761;49.490;10.908;2024-02-21T08:41:53;4.27;;;2.40;;
9445;SDS011;4761;49.490;10.908;2024-02-21T08:44:19;3.93;;;2.07;;
9445;SDS011;4761;49.490;10.908;2024-02-21T08:46:44;4.37;;;2.20;;
9445;SDS011;4761;49.490;10.908;2024-02-21T08:49:12;4.77;;;2.17;;
9445;SDS011;4761;49.490;10.908;2024-02-21T08:51:38;4.67;;;2.10;;
9445;SDS011;4761;49.490;10.908;2024-02-21T08:54:04;3.40;;;2.30;;
9445;SDS011;4761;49.490;10.908;2024-02-21T08:56:30;4.93;;;2.17;;
9445;SDS011;4761;49.490;10.908;2024-02-21T08:58:56;4.53;;;2.10;;
9445;SDS011;4761;49.490;10.908;2024-02-21T09:01:22;5.27;;;2.40;;
9445;SDS011;4761;49.490;10.908;2024-02-21T09:03:48;4.47;;;2.40;;
9445;SDS011;4761;49.490;10.908;2024-02-21T09:06:18;3.50;;;2.10;;
9445;SDS011;4761;49.490;10.908;2024-02-21T09:08:44;4.53;;;2.00;;
9445;SDS011;4761;49.490;10.908;2024-02-21T09:11:10;3.87;;;1.90;;
9445;SDS011;4761;49.490;10.908;2024-02-21T09:13:36;4.13;;;1.93;;
9445;SDS011;4761;49.490;10.908;2024-02-21T09:16:01;3.80;;;2.00;;
9445;SDS011;4761;49.490;10.908;2024-02-21T09:18:28;5.17;;;1.83;;
9445;SDS011;4761;49.490;10.908;2024-02-21T09:20:53;5.07;;;2.50;;
9445;SDS011;4761;49.490;10.908;2024-02-21T09:23:19;4.07;;;2.07;;
9445;SDS011;4761;49.490;10.908;2024-02-21T09:25:45;4.63;;;1.97;;
9445;SDS011;4761;49.490;10.908;2024-02-21T09:28:11;5.27;;;2.27;;
9445;SDS011;4761;49.490;10.908;2024-02-21T09:30:38;5.43;;;2.13;;
9445;SDS011;4761;49.490;10.908;2024-02-21T09:33:03;4.77;;;2.10;;
9445;SDS011;4761;49.490;10.908;2024-02-21T09:35:30;3.93;;;2.00;;
9445;SDS011;4761;49.490;10.908;2024-02-21T09:37:55;4.55;;;2.00;;
9445;SDS011;4761;49.490;10.908;2024-02-21T09:40:21;4.33;;;2.20;;
9445;SDS011;4761;49.490;10.908;2024-02-21T09:42:47;2.83;;;1.70;;
9445;SDS011;4761;49.490;10.908;2024-02-21T09:45:25;6.30;;;2.07;;
9445;SDS011;4761;49.490;10.908;2024-02-21T09:50:25;4.77;;;2.07;;
9445;SDS011;4761;49.490;10.908;2024-02-21T09:52:52;3.40;;;1.83;;
9445;SDS011;4761;49.490;10.908;2024-02-21T09:55:19;10.27;;;2.13;;
9445;SDS011;4761;49.490;10.908;2024-02-21T09:57:46;6.63;;;1.93;;
9445;SDS011;4761;49.490;10.908;2024-02-21T10:00:12;6.60;;;2.07;;
9445;SDS011;4761;49.490;10.908;2024-02-21T10:02:46;7.00;;;2.13;;
9445;SDS011;4761;49.490;10.908;2024-02-21T10:05:13;6.60;;;1.95;;
9445;SDS011;4761;49.490;10.908;2024-02-21T10:07:38;7.67;;;1.87;;
9445;SDS011;4761;49.490;10.908;2024-02-21T10:10:04;7.83;;;1.90;;
9445;SDS011;4761;49.490;10.908;2024-02-21T10:12:30;5.17;;;1.97;;
9445;SDS011;4761;49.490;10.908;2024-02-21T10:15:02;5.30;;;2.00;;
9445;SDS011;4761;49.490;10.908;2024-02-21T10:17:28;3.40;;;1.93;;
9445;SDS011;4761;49.490;10.908;2024-02-21T10:19:54;5.37;;;1.70;;
9445;SDS011;4761;49.490;10.908;2024-02-21T10:22:20;4.97;;;2.10;;
9445;SDS011;4761;49.490;10.908;2024-02-21T10:24:46;2.47;;;1.43;;
9445;SDS011;4761;49.490;10.908;2024-02-21T10:27:11;4.20;;;1.80;;
9445;SDS011;4761;49.490;10.908;2024-02-21T10:29:37;3.23;;;1.60;;
9445;SDS011;4761;49.490;10.908;2024-02-21T10:32:04;3.60;;;1.80;;
9445;SDS011;4761;49.490;10.908;2024-02-21T10:34:31;5.07;;;1.90;;
9445;SDS011;4761;49.490;10.908;2024-02-21T10:37:00;5.83;;;1.87;;
9445;SDS011;4761;49.490;10.908;2024-02-21T10:39:31;4.18;;;1.85;;
9445;SDS011;4761;49.490;10.908;2024-02-21T10:41:58;4.80;;;1.80;;
9445;SDS011;4761;49.490;10.908;2024-02-21T10:44:28;3.80;;;1.83;;
9445;SDS011;4761;49.490;10.908;2024-02-21T10:46:55;3.47;;;1.90;;
9445;SDS011;4761;49.490;10.908;2024-02-21T10:49:27;4.80;;;2.00;;
9445;SDS011;4761;49.490;10.908;2024-02-21T10:52:02;5.23;;;1.90;;
9445;SDS011;4761;49.490;10.908;2024-02-21T10:54:39;3.60;;;1.87;;
9445;SDS011;4761;49.490;10.908;2024-02-21T10:57:12;4.13;;;1.70;;
9445;SDS011;4761;49.490;10.908;2024-02-21T10:59:39;3.07;;;1.53;;
9445;SDS011;4761;49.490;10.908;2024-02-21T11:02:05;4.10;;;1.80;;
9445;SDS011;4761;49.490;10.908;2024-02-21T11:04:31;4.23;;;1.80;;
9445;SDS011;4761;49.490;10.908;2024-02-21T11:07:03;5.57;;;1.43;;
9445;SDS011;4761;49.490;10.908;2024-02-21T11:09:30;3.83;;;1.70;;
9445;SDS011;4761;49.490;10.908;2024-02-21T11:12:02;3.93;;;1.90;;
9445;SDS011;4761;49.490;10.908;2024-02-21T11:14:31;3.43;;;1.60;;
9445;SDS011;4761;49.490;10.908;2024-02-21T11:17:02;2.87;;;1.57;;
9445;SDS011;4761;49.490;10.908;2024-02-21T11:19:29;3.07;;;1.83;;
9445;SDS011;4761;49.490;10.908;2024-02-21T11:21:56;4.27;;;1.90;;
9445;SDS011;4761;49.490;10.908;2024-02-21T11:24:40;3.27;;;1.60;;
9445;SDS011;4761;49.490;10.908;2024-02-21T11:27:14;4.10;;;2.00;;
9445;SDS011;4761;49.490;10.908;2024-02-21T11:29:44;2.93;;;1.73;;
9445;SDS011;4761;49.490;10.908;2024-02-21T11:32:16;3.70;;;2.07;;
9445;SDS011;4761;49.490;10.908;2024-02-21T11:34:55;4.20;;;1.70;;
9445;SDS011;4761;49.490;10.908;2024-02-21T11:37:23;5.47;;;2.03;;
9445;SDS011;4761;49.490;10.908;2024-02-21T11:39:51;3.87;;;1.83;;
9445;SDS011;4761;49.490;10.908;2024-02-21T11:42:18;4.40;;;1.80;;
9445;SDS011;4761;49.490;10.908;2024-02-21T11:44:43;4.93;;;2.07;;
9445;SDS011;4761;49.490;10.908;2024-02-21T11:47:09;3.63;;;2.07;;
9445;SDS011;4761;49.490;10.908;2024-02-21T11:49:36;4.43;;;2.00;;
9445;SDS011;4761;49.490;10.908;2024-02-21T11:52:05;2.43;;;1.50;;
9445;SDS011;4761;49.490;10.908;2024-02-21T11:54:32;3.53;;;1.77;;
9445;SDS011;4761;49.490;10.908;2024-02-21T11:56:58;7.77;;;2.43;;
9445;SDS011;4761;49.490;10.908;2024-02-21T11:59:24;4.40;;;1.73;;
9445;SDS011;4761;49.490;10.908;2024-02-21T12:01:50;4.87;;;2.03;;
9445;SDS011;4761;49.490;10.908;2024-02-21T12:04:17;4.47;;;1.90;;
9445;SDS011;4761;49.490;10.908;2024-02-21T12:06:44;3.60;;;1.83;;
9445;SDS011;4761;49.490;10.908;2024-02-21T12:09:13;3.80;;;1.60;;
9445;SDS011;4761;49.490;10.908;2024-02-21T12:11:40;2.87;;;1.60;;
9445;SDS011;4761;49.490;10.908;2024-02-21T12:14:06;4.93;;;2.00;;
9445;SDS011;4761;49.490;10.908;2024-02-21T12:16:35;3.83;;;1.70;;
9445;SDS011;4761;49.490;10.908;2024-02-21T12:19:04;4.37;;;1.90;;
9445;SDS011;4761;49.490;10.908;2024-02-21T12:21:30;4.53;;;1.90;;
9445;SDS011;4761;49.490;10.908;2024-02-21T12:23:57;3.57;;;1.53;;
9445;SDS011;4761;49.490;10.908;2024-02-21T12:26:23;4.23;;;1.70;;
9445;SDS011;4761;49.490;10.908;2024-02-21T12:28:49;3.07;;;1.60;;
9445;SDS011;4761;49.490;10.908;2024-02-21T12:31:15;2.87;;;1.80;;
9445;SDS011;4761;49.490;10.908;2024-02-21T12:33:41;4.50;;;1.40;;
9445;SDS011;4761;49.490;10.908;2024-02-21T12:36:07;4.70;;;1.97;;
9445;SDS011;4761;49.490;10.908;2024-02-21T12:38:33;5.37;;;2.00;;
9445;SDS011;4761;49.490;10.908;2024-02-21T12:41:02;3.93;;;1.50;;
9445;SDS011;4761;49.490;10.908;2024-02-21T12:43:28;3.70;;;2.00;;
9445;SDS011;4761;49.490;10.908;2024-02-21T12:45:54;3.07;;;1.60;;
9445;SDS011;4761;49.490;10.908;2024-02-21T12:48:19;3.30;;;1.83;;
9445;SDS011;4761;49.490;10.908;2024-02-21T12:50:48;4.10;;;1.70;;
9445;SDS011;4761;49.490;10.908;2024-02-21T12:53:20;6.47;;;2.27;;
9445;SDS011;4761;49.490;10.908;2024-02-21T12:55:47;5.80;;;2.10;;
9445;SDS011;4761;49.490;10.908;2024-02-21T12:58:13;4.67;;;2.07;;
9445;SDS011;4761;49.490;10.908;2024-02-21T13:00:39;4.97;;;2.33;;
9445;SDS011;4761;49.490;10.908;2024-02-21T13:03:05;4.07;;;2.10;;
9445;SDS011;4761;49.490;10.908;2024-02-21T13:05:30;4.57;;;2.10;;
9445;SDS011;4761;49.490;10.908;2024-02-21T13:07:57;4.87;;;2.30;;
9445;SDS011;4761;49.490;10.908;2024-02-21T13:10:23;5.70;;;2.33;;
9445;SDS011;4761;49.490;10.908;2024-02-21T13:12:48;3.63;;;1.80;;
9445;SDS011;4761;49.490;10.908;2024-02-21T13:15:14;5.47;;;2.10;;
9445;SDS011;4761;49.490;10.908;2024-02-21T13:17:41;4.63;;;1.93;;
9445;SDS011;4761;49.490;10.908;2024-02-21T13:20:06;4.27;;;1.70;;
9445;SDS011;4761;49.490;10.908;2024-02-21T13:22:33;3.47;;;1.83;;
9445;SDS011;4761;49.490;10.908;2024-02-21T13:24:59;4.70;;;1.80;;
9445;SDS011;4761;49.490;10.908;2024-02-21T13:27:25;3.43;;;1.67;;
9445;SDS011;4761;49.490;10.908;2024-02-21T13:29:51;2.77;;;1.40;;
9445;SDS011;4761;49.490;10.908;2024-02-21T13:32:17;2.40;;;1.60;;
9445;SDS011;4761;49.490;10.908;2024-02-21T13:34:43;3.40;;;1.60;;
9445;SDS011;4761;49.490;10.908;2024-02-21T13:37:09;3.10;;;1.60;;
9445;SDS011;4761;49.490;10.908;2024-02-21T13:39:35;3.37;;;1.70;;
9445;SDS011;4761;49.490;10.908;2024-02-21T13:42:01;4.23;;;1.40;;
9445;SDS011;4761;49.490;10.908;2024-02-21T13:44:27;2.80;;;1.63;;
9445;SDS011;4761;49.490;10.908;2024-02-21T13:46:53;2.43;;;1.30;;
9445;SDS011;4761;49.490;10.908;2024-02-21T13:49:19;3.27;;;1.50;;
9445;SDS011;4761;49.490;10.908;2024-02-21T13:51:44;2.73;;;1.30;;
9445;SDS011;4761;49.490;10.908;2024-02-21T13:54:10;2.53;;;1.40;;
9445;SDS011;4761;49.490;10.908;2024-02-21T13:56:36;2.60;;;1.40;;
9445;SDS011;4761;49.490;10.908;2024-02-21T13:59:02;2.30;;;1.30;;
9445;SDS011;4761;49.490;10.908;2024-02-21T14:01:28;2.90;;;1.50;;
9445;SDS011;4761;49.490;10.908;2024-02-21T14:03:54;1.73;;;1.07;;
9445;SDS011;4761;49.490;10.908;2024-02-21T14:06:19;4.50;;;1.50;;
9445;SDS011;4761;49.490;10.908;2024-02-21T14:08:45;2.80;;;1.47;;
9445;SDS011;4761;49.490;10.908;2024-02-21T14:11:11;1.80;;;1.30;;
9445;SDS011;4761;49.490;10.908;2024-02-21T14:13:36;2.73;;;1.43;;
9445;SDS011;4761;49.490;10.908;2024-02-21T14:16:02;2.03;;;1.10;;
9445;SDS011;4761;49.490;10.908;2024-02-21T14:18:28;2.53;;;1.40;;
9445;SDS011;4761;49.490;10.908;2024-02-21T14:20:53;2.83;;;1.33;;
9445;SDS011;4761;49.490;10.908;2024-02-21T14:23:19;1.90;;;1.10;;
9445;SDS011;4761;49.490;10.908;2024-02-21T14:25:44;1.27;;;1.07;;
9445;SDS011;4761;49.490;10.908;2024-02-21T14:28:10;2.00;;;1.17;;
9445;SDS011;4761;49.490;10.908;2024-02-21T14:30:35;3.83;;;1.47;;
9445;SDS011;4761;49.490;10.908;2024-02-21T14:33:01;3.07;;;1.00;;
9445;SDS011;4761;49.490;10.908;2024-02-21T14:35:26;2.20;;;1.20;;
9445;SDS011;4761;49.490;10.908;2024-02-21T14:37:52;2.93;;;1.13;;
9445;SDS011;4761;49.490;10.908;2024-02-21T14:40:20;2.13;;;1.10;;
9445;SDS011;4761;49.490;10.908;2024-02-21T14:42:46;3.10;;;1.37;;
9445;SDS011;4761;49.490;10.908;2024-02-21T14:45:11;3.83;;;1.45;;
9445;SDS011;4761;49.490;10.908;2024-02-21T14:47:38;2.23;;;1.10;;
9445;SDS011;4761;49.490;10.908;2024-02-21T14:50:04;2.70;;;1.30;;
9445;SDS011;4761;49.490;10.908;2024-02-21T14:52:30;2.37;;;1.10;;
9445;SDS011;4761;49.490;10.908;2024-02-21T14:54:57;2.27;;;1.10;;
9445;SDS011;4761;49.490;10.908;2024-02-21T14:57:23;2.10;;;1.40;;
9445;SDS011;4761;49.490;10.908;2024-02-21T14:59:50;2.67;;;1.70;;